createdAt,value
2019-03-10T00:00:42.791Z,7.30
2019-03-10T00:03:12.836Z,7.20
2019-03-10T00:05:42.419Z,7.20
2019-03-10T00:08:11.961Z,7.20
2019-03-10T00:10:41.810Z,7.20
2019-03-10T00:13:11.347Z,7.20
2019-03-10T00:15:41.177Z,7.20
2019-03-10T00:18:10.776Z,7.20
2019-03-10T00:20:40.392Z,7.10
2019-03-10T00:23:10.017Z,7.10
2019-03-10T00:25:39.858Z,7.10
2019-03-10T00:28:09.880Z,7.10
2019-03-10T00:30:39.574Z,7.10
2019-03-10T00:33:09.138Z,7.10
2019-03-10T00:35:38.953Z,7.10
2019-03-10T00:38:08.743Z,7.10
2019-03-10T00:41:18.117Z,7.10
2019-03-10T00:44:14.217Z,7.10
2019-03-10T00:47:38.634Z,7.10
2019-03-10T00:51:10.052Z,7.00
2019-03-10T00:53:39.797Z,7.10
2019-03-10T00:56:09.640Z,7.00
2019-03-10T00:58:39.634Z,7.00
2019-03-10T01:01:09.489Z,7.00
2019-03-10T01:03:39.198Z,7.00
2019-03-10T01:06:08.975Z,6.90
2019-03-10T01:08:38.598Z,6.90
2019-03-10T01:11:08.353Z,6.90
2019-03-10T01:13:38.057Z,6.90
2019-03-10T01:16:07.942Z,6.90
2019-03-10T01:18:39.020Z,6.90
2019-03-10T01:21:08.992Z,6.90
2019-03-10T01:23:38.499Z,6.90
2019-03-10T01:26:08.153Z,6.90
2019-03-10T01:28:37.724Z,6.90
2019-03-10T01:31:33.657Z,6.90
2019-03-10T01:34:31.903Z,6.90
2019-03-10T01:37:01.844Z,6.90
2019-03-10T01:39:31.517Z,6.90
2019-03-10T01:42:00.989Z,6.90
2019-03-10T01:44:30.560Z,6.90
2019-03-10T01:47:00.158Z,6.90
2019-03-10T01:49:29.600Z,6.90
2019-03-10T01:51:59.811Z,6.80
2019-03-10T01:54:29.761Z,6.80
2019-03-10T01:56:59.420Z,6.80
2019-03-10T01:59:29.525Z,6.80
2019-03-10T02:01:59.034Z,6.80
2019-03-10T02:04:28.637Z,6.80
2019-03-10T02:06:58.802Z,6.80
2019-03-10T02:09:28.910Z,6.90
2019-03-10T02:11:58.711Z,6.90
2019-03-10T02:14:28.408Z,6.90
2019-03-10T02:16:58.386Z,6.90
2019-03-10T02:19:28.453Z,6.80
2019-03-10T02:21:58.011Z,6.80
2019-03-10T02:24:27.558Z,6.80
2019-03-10T02:26:57.116Z,6.90
2019-03-10T02:29:26.737Z,6.90
2019-03-10T02:31:56.482Z,6.90
2019-03-10T02:34:26.122Z,6.90
2019-03-10T02:36:55.791Z,6.80
2019-03-10T02:39:25.300Z,6.80
2019-03-10T02:41:55.043Z,6.90
2019-03-10T02:44:24.587Z,6.90
2019-03-10T02:46:54.595Z,6.90
2019-03-10T02:49:24.289Z,6.90
2019-03-10T02:51:53.988Z,6.80
2019-03-10T02:54:23.981Z,6.80
2019-03-10T02:56:53.694Z,6.90
2019-03-10T02:59:23.432Z,6.80
2019-03-10T03:01:53.139Z,6.90
2019-03-10T03:04:22.701Z,6.80
2019-03-10T03:06:52.209Z,6.80
2019-03-10T03:09:21.772Z,6.80
2019-03-10T03:11:51.424Z,6.80
2019-03-10T03:14:20.965Z,6.80
2019-03-10T03:16:52.713Z,6.80
2019-03-10T03:19:21.917Z,6.80
2019-03-10T03:21:51.475Z,6.80
2019-03-10T03:24:20.952Z,6.80
2019-03-10T03:26:50.512Z,6.80
2019-03-10T03:29:20.054Z,6.80
2019-03-10T03:31:49.628Z,6.80
2019-03-10T03:34:19.199Z,6.80
2019-03-10T03:36:48.800Z,6.90
2019-03-10T03:39:41.739Z,6.80
2019-03-10T03:42:11.174Z,6.80
2019-03-10T03:44:40.710Z,6.80
2019-03-10T03:47:10.216Z,6.80
2019-03-10T03:49:39.623Z,6.80
2019-03-10T03:52:09.200Z,6.90
2019-03-10T03:54:38.694Z,6.90
2019-03-10T03:57:08.150Z,6.80
2019-03-10T03:59:37.642Z,6.80
2019-03-10T04:02:14.840Z,6.80
2019-03-10T04:04:44.408Z,6.80
2019-03-10T04:07:13.839Z,6.80
2019-03-10T04:09:43.244Z,6.80
2019-03-10T04:12:12.662Z,6.80
2019-03-10T04:14:42.168Z,6.80
2019-03-10T04:17:11.668Z,6.80
2019-03-10T04:19:41.195Z,6.80
2019-03-10T04:22:10.822Z,6.80
2019-03-10T04:24:40.307Z,6.80
2019-03-10T04:27:09.774Z,6.80
2019-03-10T04:29:39.402Z,6.90
2019-03-10T04:32:08.849Z,6.90
2019-03-10T04:34:38.405Z,6.80
2019-03-10T04:37:07.806Z,6.80
2019-03-10T04:39:37.204Z,6.80
2019-03-10T04:42:06.777Z,6.80
2019-03-10T04:44:36.479Z,6.80
2019-03-10T04:47:05.980Z,6.80
2019-03-10T04:49:35.444Z,6.80
2019-03-10T04:52:05.052Z,6.80
2019-03-10T04:54:56.355Z,6.70
2019-03-10T04:57:26.074Z,6.70
2019-03-10T04:59:55.569Z,6.70
2019-03-10T05:02:25.033Z,6.70
2019-03-10T05:04:54.469Z,6.70
2019-03-10T05:07:23.985Z,6.70
2019-03-10T05:09:53.450Z,6.70
2019-03-10T05:12:22.876Z,6.70
2019-03-10T05:14:52.495Z,6.70
2019-03-10T05:17:21.978Z,6.70
2019-03-10T05:19:51.498Z,6.70
2019-03-10T05:22:20.933Z,6.60
2019-03-10T05:24:50.392Z,6.70
2019-03-10T05:27:19.866Z,6.60
2019-03-10T05:29:49.325Z,6.60
2019-03-10T05:32:18.827Z,6.60
2019-03-10T05:34:48.319Z,6.60
2019-03-10T05:37:17.905Z,6.60
2019-03-10T05:39:47.365Z,6.60
2019-03-10T05:42:16.869Z,6.60
2019-03-10T05:44:46.276Z,6.60
2019-03-10T05:47:15.811Z,6.50
2019-03-10T05:49:45.226Z,6.50
2019-03-10T05:52:14.759Z,6.50
2019-03-10T05:54:44.307Z,6.50
2019-03-10T05:57:13.786Z,6.50
2019-03-10T05:59:43.246Z,6.50
2019-03-10T06:02:12.769Z,6.50
2019-03-10T06:04:42.235Z,6.40
2019-03-10T06:07:11.691Z,6.40
2019-03-10T06:09:41.201Z,6.40
2019-03-10T06:12:10.853Z,6.40
2019-03-10T06:14:40.270Z,6.40
2019-03-10T06:17:09.718Z,6.40
2019-03-10T06:19:39.226Z,6.40
2019-03-10T06:22:08.757Z,6.40
2019-03-10T06:24:38.413Z,6.30
2019-03-10T06:27:07.988Z,6.30
2019-03-10T06:29:37.423Z,6.30
2019-03-10T06:32:06.859Z,6.30
2019-03-10T06:34:36.386Z,6.20
2019-03-10T06:37:05.831Z,6.20
2019-03-10T06:39:35.351Z,6.20
2019-03-10T06:42:04.845Z,6.20
2019-03-10T06:44:34.350Z,6.30
2019-03-10T06:47:03.850Z,6.20
2019-03-10T06:49:33.213Z,6.20
2019-03-10T06:52:02.609Z,6.20
2019-03-10T06:54:32.068Z,6.20
2019-03-10T06:57:01.525Z,6.20
2019-03-10T06:59:30.958Z,6.10
2019-03-10T07:02:00.402Z,6.10
2019-03-10T07:04:29.876Z,6.10
2019-03-10T07:06:59.295Z,6.10
2019-03-10T07:09:28.704Z,6.10
2019-03-10T07:11:58.224Z,6.10
2019-03-10T07:14:27.616Z,6.10
2019-03-10T07:16:57.058Z,6.10
2019-03-10T07:19:26.515Z,6.10
2019-03-10T07:21:55.964Z,6.10
2019-03-10T07:24:25.504Z,6.10
2019-03-10T07:26:55.029Z,6.10
2019-03-10T07:29:34.040Z,6.10
2019-03-10T07:32:22.601Z,6.00
2019-03-10T07:35:10.098Z,6.00
2019-03-10T07:37:58.567Z,6.10
2019-03-10T07:40:49.806Z,6.00
2019-03-10T07:43:24.014Z,6.00
2019-03-10T07:46:11.300Z,6.00
2019-03-10T07:48:58.429Z,6.10
2019-03-10T07:51:42.537Z,6.10
2019-03-10T07:54:34.027Z,6.10
2019-03-10T07:57:20.707Z,6.00
2019-03-10T08:00:12.321Z,6.00
2019-03-10T08:02:48.482Z,6.10
2019-03-10T08:05:36.895Z,6.00
2019-03-10T08:08:25.460Z,6.00
2019-03-10T08:11:17.207Z,6.00
2019-03-10T08:14:15.109Z,6.00
2019-03-10T08:17:06.247Z,5.90
2019-03-10T08:20:01.107Z,5.90
2019-03-10T08:22:54.825Z,5.90
2019-03-10T08:25:52.174Z,5.90
2019-03-10T08:28:40.640Z,5.90
2019-03-10T08:31:27.520Z,6.00
2019-03-10T08:34:14.848Z,6.00
2019-03-10T08:37:02.404Z,6.00
2019-03-10T08:39:49.785Z,5.90
2019-03-10T08:42:27.145Z,5.90
2019-03-10T08:45:18.409Z,5.90
2019-03-10T08:48:01.089Z,5.90
2019-03-10T08:50:41.507Z,5.80
2019-03-10T08:53:33.197Z,5.70
2019-03-10T08:56:15.441Z,5.70
2019-03-10T08:58:59.514Z,5.70
2019-03-10T09:01:54.077Z,5.70
2019-03-10T09:04:44.871Z,5.60
2019-03-10T09:07:32.092Z,5.70
2019-03-10T09:10:17.674Z,5.70
2019-03-10T09:13:01.561Z,5.70
2019-03-10T09:15:55.737Z,5.70
2019-03-10T09:19:02.729Z,5.70
2019-03-10T09:21:51.177Z,5.70
2019-03-10T09:24:58.036Z,5.70
2019-03-10T09:28:07.541Z,5.70
2019-03-10T09:30:45.072Z,5.80
2019-03-10T09:33:48.592Z,5.80
2019-03-10T09:36:42.676Z,5.70
2019-03-10T09:39:40.363Z,5.70
2019-03-10T09:42:31.641Z,5.80
2019-03-10T09:45:09.625Z,5.80
2019-03-10T09:47:57.048Z,5.90
2019-03-10T09:50:47.325Z,6.00
2019-03-10T09:53:37.193Z,6.00
2019-03-10T09:56:34.665Z,6.00
2019-03-10T09:59:14.195Z,6.00
2019-03-10T10:02:02.420Z,6.10
2019-03-10T10:04:51.259Z,6.10
2019-03-10T10:07:43.636Z,6.20
2019-03-10T10:10:32.624Z,6.20
2019-03-10T10:13:24.644Z,6.30
2019-03-10T10:16:18.782Z,6.30
2019-03-10T10:19:05.893Z,6.40
2019-03-10T10:21:53.842Z,6.40
2019-03-10T10:24:35.845Z,6.40
2019-03-10T10:27:22.647Z,6.40
2019-03-10T10:30:27.307Z,6.40
2019-03-10T10:33:16.685Z,6.50
2019-03-10T10:36:08.200Z,6.50
2019-03-10T10:39:03.066Z,6.50
2019-03-10T10:41:50.980Z,6.50
2019-03-10T10:44:54.939Z,6.60
2019-03-10T10:47:33.384Z,6.60
2019-03-10T10:50:28.118Z,6.60
2019-03-10T10:53:25.788Z,6.60
2019-03-10T10:56:26.744Z,6.70
2019-03-10T10:59:12.755Z,6.70
2019-03-10T11:02:10.110Z,6.70
2019-03-10T11:05:01.567Z,6.70
2019-03-10T11:07:58.109Z,6.70
2019-03-10T11:10:45.454Z,6.70
2019-03-10T11:13:38.124Z,6.70
2019-03-10T11:16:16.248Z,6.70
2019-03-10T11:18:59.186Z,6.80
2019-03-10T11:21:38.048Z,6.80
2019-03-10T11:24:12.967Z,6.70
2019-03-10T11:27:08.108Z,6.70
2019-03-10T11:29:51.766Z,6.70
2019-03-10T11:32:36.733Z,6.80
2019-03-10T11:35:32.051Z,6.80
2019-03-10T11:38:23.398Z,6.80
2019-03-10T11:41:03.787Z,6.80
2019-03-10T11:44:07.816Z,6.70
2019-03-10T11:46:45.076Z,6.80
2019-03-10T11:49:35.991Z,6.80
2019-03-10T11:52:20.197Z,6.80
2019-03-10T11:55:09.314Z,6.80
2019-03-10T11:57:44.279Z,6.80
2019-03-10T12:00:40.666Z,6.80
2019-03-10T12:03:19.305Z,6.80
2019-03-10T12:06:03.400Z,6.80
2019-03-10T12:09:07.681Z,6.80
2019-03-10T12:11:39.052Z,6.70
2019-03-10T12:14:08.809Z,6.80
2019-03-10T12:16:38.348Z,6.80
2019-03-10T12:19:07.835Z,6.80
2019-03-10T12:21:37.377Z,6.90
2019-03-10T12:24:06.952Z,6.90
2019-03-10T12:26:36.532Z,6.90
2019-03-10T12:29:05.996Z,6.90
2019-03-10T12:31:35.570Z,7.00
2019-03-10T12:34:05.561Z,7.00
2019-03-10T12:36:35.291Z,6.90
2019-03-10T12:39:07.540Z,6.90
2019-03-10T12:41:37.145Z,7.00
2019-03-10T12:44:07.370Z,7.00
2019-03-10T12:46:36.922Z,7.00
2019-03-10T12:49:06.452Z,7.10
2019-03-10T12:51:35.973Z,7.10
2019-03-10T12:54:05.435Z,7.20
2019-03-10T12:56:34.871Z,7.20
2019-03-10T12:59:04.343Z,7.20
2019-03-10T13:01:33.783Z,7.20
2019-03-10T13:04:03.253Z,7.30
2019-03-10T13:06:32.743Z,7.30
2019-03-10T13:09:02.321Z,7.30
2019-03-10T13:11:31.862Z,7.40
2019-03-10T13:14:01.346Z,7.40
2019-03-10T13:16:30.718Z,7.40
2019-03-10T13:19:00.275Z,7.40
2019-03-10T13:21:29.738Z,7.50
2019-03-10T13:23:59.221Z,7.50
2019-03-10T13:26:31.382Z,7.60
2019-03-10T13:29:00.882Z,7.60
2019-03-10T13:31:30.286Z,7.60
2019-03-10T13:33:59.767Z,7.70
2019-03-10T13:36:29.161Z,7.80
2019-03-10T13:38:58.715Z,7.80
2019-03-10T13:41:28.730Z,7.80
2019-03-10T13:43:59.622Z,7.80
2019-03-10T13:46:29.770Z,7.90
2019-03-10T13:48:59.835Z,7.90
2019-03-10T13:51:29.989Z,7.90
2019-03-10T13:53:59.509Z,7.90
2019-03-10T13:56:29.010Z,7.90
2019-03-10T13:58:58.447Z,8.00
2019-03-10T14:01:27.845Z,8.10
2019-03-10T14:03:57.234Z,8.10
2019-03-10T14:06:26.782Z,8.10
2019-03-10T14:08:56.409Z,8.10
2019-03-10T14:11:25.906Z,8.30
2019-03-10T14:13:55.688Z,8.50
2019-03-10T14:16:25.257Z,8.70
2019-03-10T14:18:54.794Z,8.80
2019-03-10T14:21:24.685Z,8.90
2019-03-10T14:23:54.197Z,8.90
2019-03-10T14:26:23.711Z,9.00
2019-03-10T14:28:53.249Z,9.00
2019-03-10T14:31:22.828Z,8.90
2019-03-10T14:33:52.330Z,8.90
2019-03-10T14:36:21.824Z,8.80
2019-03-10T14:38:51.262Z,8.70
2019-03-10T14:41:20.725Z,8.60
2019-03-10T14:43:50.158Z,8.60
2019-03-10T14:46:19.655Z,8.50
2019-03-10T14:48:49.188Z,8.50
2019-03-10T14:51:19.003Z,8.40
2019-03-10T14:53:48.750Z,8.30
2019-03-10T14:56:21.377Z,8.30
2019-03-10T14:58:51.179Z,8.20
2019-03-10T15:01:22.343Z,8.20
2019-03-10T15:03:52.141Z,8.10
2019-03-10T15:06:55.340Z,8.00
2019-03-10T15:09:24.811Z,8.00
2019-03-10T15:11:54.216Z,7.90
2019-03-10T15:14:23.845Z,7.90
2019-03-10T15:16:53.254Z,7.90
2019-03-10T15:19:22.805Z,7.90
2019-03-10T15:21:52.194Z,7.90
2019-03-10T15:24:21.695Z,7.90
2019-03-10T15:26:57.158Z,7.90
2019-03-10T15:29:26.614Z,7.90
2019-03-10T15:31:56.039Z,7.80
2019-03-10T15:34:25.568Z,7.80
2019-03-10T15:36:55.084Z,7.80
2019-03-10T15:39:27.436Z,7.80
2019-03-10T15:41:58.029Z,7.40
2019-03-10T15:44:57.601Z,6.90
2019-03-10T15:47:57.244Z,6.60
2019-03-10T15:50:26.835Z,6.10
2019-03-10T15:52:59.114Z,5.90
2019-03-10T15:55:58.729Z,5.60
2019-03-10T15:58:28.137Z,5.20
2019-03-10T16:00:57.625Z,5.10
2019-03-10T16:03:27.083Z,5.00
2019-03-10T16:05:56.679Z,4.90
2019-03-10T16:08:26.202Z,4.80
2019-03-10T16:10:55.986Z,4.70
2019-03-10T16:13:25.485Z,4.60
2019-03-10T16:15:54.946Z,4.50
2019-03-10T16:18:24.453Z,4.50
2019-03-10T16:20:54.009Z,4.50
2019-03-10T16:23:23.607Z,4.50
2019-03-10T16:25:53.070Z,4.50
2019-03-10T16:28:22.540Z,4.40
2019-03-10T16:30:51.974Z,4.50
2019-03-10T16:33:21.415Z,4.40
2019-03-10T16:35:50.844Z,4.40
2019-03-10T16:38:20.296Z,4.40
2019-03-10T16:40:49.760Z,4.40
2019-03-10T16:43:19.273Z,4.30
2019-03-10T16:45:48.730Z,4.30
2019-03-10T16:48:18.226Z,4.20
2019-03-10T16:50:47.663Z,4.10
2019-03-10T16:53:17.123Z,4.20
2019-03-10T16:55:46.572Z,4.10
2019-03-10T16:58:16.125Z,4.00
2019-03-10T17:00:48.553Z,4.00
2019-03-10T17:03:18.498Z,3.90
2019-03-10T17:05:48.090Z,3.80
2019-03-10T17:08:17.786Z,3.80
2019-03-10T17:10:47.356Z,3.80
2019-03-10T17:13:17.007Z,3.80
2019-03-10T17:15:46.492Z,3.80
2019-03-10T17:18:16.348Z,3.80
2019-03-10T17:20:47.415Z,3.70
2019-03-10T17:23:16.988Z,3.70
2019-03-10T17:25:46.613Z,3.70
2019-03-10T17:28:16.086Z,3.70
2019-03-10T17:30:45.767Z,3.60
2019-03-10T17:33:15.385Z,3.60
2019-03-10T17:35:44.874Z,3.50
2019-03-10T17:38:14.494Z,3.50
2019-03-10T17:40:43.975Z,3.40
2019-03-10T17:43:13.550Z,3.40
2019-03-10T17:45:42.994Z,3.40
2019-03-10T17:48:13.301Z,3.40
2019-03-10T17:50:42.967Z,3.40
2019-03-10T17:53:12.512Z,3.40
2019-03-10T17:55:42.282Z,3.40
2019-03-10T17:58:12.670Z,3.30
2019-03-10T18:00:42.294Z,3.30
2019-03-10T18:03:11.910Z,3.20
2019-03-10T18:05:41.447Z,3.20
2019-03-10T18:08:18.952Z,3.20
2019-03-10T18:10:48.866Z,3.20
2019-03-10T18:13:18.870Z,3.20
2019-03-10T18:15:48.640Z,3.20
2019-03-10T18:18:18.223Z,3.20
2019-03-10T18:20:48.238Z,3.10
2019-03-10T18:23:17.996Z,3.20
2019-03-10T18:25:48.216Z,3.20
2019-03-10T18:28:17.925Z,3.10
2019-03-10T18:30:47.771Z,3.10
2019-03-10T18:33:17.439Z,3.10
2019-03-10T18:35:47.198Z,3.10
2019-03-10T18:38:16.985Z,3.10
2019-03-10T18:40:46.914Z,3.10
2019-03-10T18:43:16.660Z,3.10
2019-03-10T18:45:46.509Z,3.10
2019-03-10T18:48:16.136Z,3.10
2019-03-10T18:50:45.849Z,3.10
2019-03-10T18:53:15.586Z,3.20
2019-03-10T18:55:45.311Z,3.20
2019-03-10T18:58:14.825Z,3.20
2019-03-10T19:00:44.378Z,3.20
2019-03-10T19:03:13.937Z,3.20
2019-03-10T19:05:43.507Z,3.20
2019-03-10T19:08:13.076Z,3.30
2019-03-10T19:10:42.520Z,3.30
2019-03-10T19:13:11.947Z,3.30
2019-03-10T19:15:41.505Z,3.30
2019-03-10T19:18:10.980Z,3.30
2019-03-10T19:20:40.576Z,3.30
2019-03-10T19:23:10.278Z,3.30
2019-03-10T19:25:39.886Z,3.30
2019-03-10T19:28:09.522Z,3.30
2019-03-10T19:30:39.004Z,3.30
2019-03-10T19:33:08.591Z,3.30
2019-03-10T19:35:38.151Z,3.30
2019-03-10T19:38:07.619Z,3.30
2019-03-10T19:40:37.135Z,3.30
2019-03-10T19:43:06.703Z,3.30
2019-03-10T19:45:36.187Z,3.30
2019-03-10T19:48:05.765Z,3.30
2019-03-10T19:50:35.270Z,3.30
2019-03-10T19:53:05.029Z,3.30
2019-03-10T19:55:34.611Z,3.40
2019-03-10T19:58:04.324Z,3.40
2019-03-10T20:00:33.848Z,3.40
2019-03-10T20:03:03.323Z,3.40
2019-03-10T20:05:32.858Z,3.40
2019-03-10T20:08:02.392Z,3.50
2019-03-10T20:10:31.882Z,3.50
2019-03-10T20:13:01.455Z,3.50
2019-03-10T20:15:30.961Z,3.50
2019-03-10T20:18:00.533Z,3.50
2019-03-10T20:20:30.098Z,3.50
2019-03-10T20:23:01.229Z,3.50
2019-03-10T20:25:31.068Z,3.50
2019-03-10T20:28:00.691Z,3.50
2019-03-10T20:30:30.281Z,3.50
2019-03-10T20:32:59.837Z,3.50
2019-03-10T20:35:29.381Z,3.50
2019-03-10T20:37:59.078Z,3.50
2019-03-10T20:40:28.744Z,3.50
2019-03-10T20:42:58.319Z,3.50
2019-03-10T20:45:27.942Z,3.50
2019-03-10T20:47:57.524Z,3.50
2019-03-10T20:50:27.052Z,3.50
2019-03-10T20:52:56.605Z,3.50
2019-03-10T20:55:29.158Z,3.60
2019-03-10T20:57:58.603Z,3.60
2019-03-10T21:00:28.121Z,3.60
2019-03-10T21:02:57.622Z,3.60
2019-03-10T21:05:27.133Z,3.60
2019-03-10T21:07:56.681Z,3.50
2019-03-10T21:10:26.253Z,3.50
2019-03-10T21:12:55.843Z,3.50
2019-03-10T21:15:26.533Z,3.50
2019-03-10T21:17:56.531Z,3.50
2019-03-10T21:20:26.000Z,3.50
2019-03-10T21:22:55.556Z,3.50
2019-03-10T21:25:25.167Z,3.50
2019-03-10T21:27:54.726Z,3.50
2019-03-10T21:30:24.630Z,3.40
2019-03-10T21:32:54.229Z,3.40
2019-03-10T21:35:23.877Z,3.40
2019-03-10T21:37:53.426Z,3.40
2019-03-10T21:40:23.693Z,3.40
2019-03-10T21:42:53.111Z,3.40
2019-03-10T21:45:22.637Z,3.40
2019-03-10T21:47:52.251Z,3.40
2019-03-10T21:50:21.774Z,3.50
2019-03-10T21:52:51.285Z,3.50
2019-03-10T21:55:20.794Z,3.50
2019-03-10T21:57:50.294Z,3.50
2019-03-10T22:00:20.034Z,3.60
2019-03-10T22:02:49.518Z,3.60
2019-03-10T22:05:21.678Z,3.60
2019-03-10T22:07:51.115Z,3.60
2019-03-10T22:10:27.093Z,3.60
2019-03-10T22:12:51.753Z,3.60
2019-03-10T22:15:21.305Z,3.60
2019-03-10T22:17:50.942Z,3.60
2019-03-10T22:20:20.360Z,3.60
2019-03-10T22:22:50.281Z,3.50
2019-03-10T22:25:19.903Z,3.60
2019-03-10T22:27:49.328Z,3.50
2019-03-10T22:30:18.932Z,3.60
2019-03-10T22:32:48.341Z,3.50
2019-03-10T22:35:17.906Z,3.50
2019-03-10T22:37:47.303Z,3.50
2019-03-10T22:40:17.336Z,3.50
2019-03-10T22:42:46.993Z,3.50
2019-03-10T22:45:16.373Z,3.50
2019-03-10T22:47:45.876Z,3.50
2019-03-10T22:50:15.296Z,3.50
2019-03-10T22:52:44.787Z,3.50
2019-03-10T22:55:14.307Z,3.50
2019-03-10T22:57:43.769Z,3.50
2019-03-10T23:00:18.309Z,3.50
2019-03-10T23:02:47.690Z,3.50
2019-03-10T23:05:17.075Z,3.50
2019-03-10T23:07:46.449Z,3.50
2019-03-10T23:10:15.831Z,3.40
2019-03-10T23:12:45.239Z,3.40
2019-03-10T23:15:14.677Z,3.40
2019-03-10T23:17:44.104Z,3.40
2019-03-10T23:20:13.807Z,3.40
2019-03-10T23:22:43.262Z,3.40
2019-03-10T23:25:13.056Z,3.40
2019-03-10T23:27:42.477Z,3.40
2019-03-10T23:30:13.398Z,3.40
2019-03-10T23:32:42.889Z,3.40
2019-03-10T23:35:12.278Z,3.40
2019-03-10T23:37:41.759Z,3.40
2019-03-10T23:40:11.511Z,3.40
2019-03-10T23:42:40.957Z,3.40
2019-03-10T23:45:10.912Z,3.40
2019-03-10T23:47:40.346Z,3.40
2019-03-10T23:50:10.191Z,3.40
2019-03-10T23:52:39.632Z,3.40
2019-03-10T23:55:09.190Z,3.40
2019-03-10T23:57:38.570Z,3.40
